This is the latest recevied weather packets stored in our database for station/object N7DQ. If no packets are shown the sender has not sent any weather packets the latest 10 day(s).
| Time | Temp. | Humidity | Pressure | Rain* | Wind** | Luminosity | Snow |
|---|---|---|---|---|---|---|---|
| 1777388104 | 9.44° C | 87% | 1023.9 hPa | 0 mm | - | 127 W/m² | - |
| 1777387805 | 9.44° C | 87% | 1023.9 hPa | 0 mm | - | 118 W/m² | - |
| 1777387505 | 9.44° C | 88% | 1023.8 hPa | 0 mm | - | 95 W/m² | - |
| 1777387204 | 9.44° C | 88% | 1023.7 hPa | 0 mm | - | 81 W/m² | - |
| 1777386904 | 9.44° C | 88% | 1023.5 hPa | 0 mm | - | 70 W/m² | - |
| 1777386605 | 9.44° C | 88% | 1023.6 hPa | 0 mm | - | 54 W/m² | - |
| 1777386304 | 8.89° C | 88% | 1023.6 hPa | 0 mm | - | 40 W/m² | - |
| 1777370705 | 8.89° C | 87% | 1022 hPa | 0 mm | - | 0 W/m² | - |
| 1777370406 | 8.89° C | 87% | 1022 hPa | 0 mm | - | 0 W/m² | - |
| 1777370105 | 8.89° C | 87% | 1022 hPa | 0 mm | - | 0 W/m² | - |
| 1777369806 | 8.89° C | 87% | 1021.9 hPa | 0 mm | - | 0 W/m² | - |
| 1777369506 | 8.89° C | 86% | 1021.9 hPa | 0 mm | - | 0 W/m² | - |
| 1777369206 | 8.89° C | 86% | 1021.9 hPa | 0 mm | - | 0 W/m² | - |
| 1777368905 | 8.89° C | 87% | 1022 hPa | 0 mm | - | 0 W/m² | - |
| 1777368606 | 8.89° C | 87% | 1022 hPa | 0 mm | - | 0 W/m² | - |
| 1777368306 | 8.89° C | 87% | 1022 hPa | 0 mm | - | 0 W/m² | - |
| 1777368006 | 8.89° C | 86% | 1022 hPa | 0 mm | - | 0 W/m² | - |
| 1777367706 | 8.89° C | 86% | 1022 hPa | 0 mm | - | 0 W/m² | - |
| 1777367406 | 8.89° C | 86% | 1022.1 hPa | 0 mm | - | 0 W/m² | - |
| 1777367109 | 8.89° C | 85% | 1022.1 hPa | 0 mm | - | 0 W/m² | - |
* Rain latest hour (hover to see other rain measurements)
** Current wind speed in m/s (hover to see current wind gust speed)